Jefferson Park, Alabama
Current Conditions -  °F | °C
As of 2:04 PM on Sunday 23 Nov 2014 (Local Time) from KBHM Reporting Station
Heavy Rain Heavy Rain  
Wind Chill: 63°   Ceiling: 3100
Heat Index: 63°   Visibility: 2.5mi
Dew Point: 61°   Wind: 9mph
Humidity: 93%   Direction: 180°S
Pressure: 29.61"   Gusts: NA
Location:  33.5393°N, 86.6626°W
Report Text: KBHM 232004Z 18008KT 2 1/2SM +RA BR FEW007 BKN031 OVC049 17/16 A2961 RMK AO2 VIS 1 1/2V3 P0008 T01720161
Loading
Personal Weather Stations






























Interactive Weather Map New forecast layout! Learn more

10-Day Weather Forecast

Advertisements
Track Severe Weather on mobile